sensor_id;sensor_type;location;lat;lon;timestamp;P1;durP1;ratioP1;P2;durP2;ratioP2
44838;SDS011;30576;42.098;24.876;2023-07-31T00:00:36;0.68;;;0.40;;
44838;SDS011;30576;42.098;24.876;2023-07-31T00:03:02;2.20;;;0.17;;
44838;SDS011;30576;42.098;24.876;2023-07-31T00:05:27;1.98;;;0.57;;
44838;SDS011;30576;42.098;24.876;2023-07-31T00:07:53;0.90;;;0.47;;
44838;SDS011;30576;42.098;24.876;2023-07-31T00:10:19;1.55;;;0.70;;
44838;SDS011;30576;42.098;24.876;2023-07-31T00:12:45;0.35;;;0.35;;
44838;SDS011;30576;42.098;24.876;2023-07-31T00:15:11;1.17;;;0.65;;
44838;SDS011;30576;42.098;24.876;2023-07-31T00:17:38;0.60;;;0.50;;
44838;SDS011;30576;42.098;24.876;2023-07-31T00:20:03;0.52;;;0.43;;
44838;SDS011;30576;42.098;24.876;2023-07-31T00:22:29;0.63;;;0.45;;
44838;SDS011;30576;42.098;24.876;2023-07-31T00:24:55;0.75;;;0.35;;
44838;SDS011;30576;42.098;24.876;2023-07-31T00:27:23;0.70;;;0.45;;
44838;SDS011;30576;42.098;24.876;2023-07-31T00:29:48;0.22;;;0.22;;
44838;SDS011;30576;42.098;24.876;2023-07-31T00:32:14;0.45;;;0.45;;
44838;SDS011;30576;42.098;24.876;2023-07-31T00:34:39;2.35;;;0.45;;
44838;SDS011;30576;42.098;24.876;2023-07-31T00:37:05;1.45;;;0.98;;
44838;SDS011;30576;42.098;24.876;2023-07-31T00:39:31;0.55;;;0.55;;
44838;SDS011;30576;42.098;24.876;2023-07-31T00:41:56;0.45;;;0.28;;
44838;SDS011;30576;42.098;24.876;2023-07-31T00:44:22;2.05;;;0.47;;
44838;SDS011;30576;42.098;24.876;2023-07-31T00:46:47;0.85;;;0.77;;
44838;SDS011;30576;42.098;24.876;2023-07-31T00:49:13;0.98;;;0.50;;
44838;SDS011;30576;42.098;24.876;2023-07-31T00:51:39;0.45;;;0.45;;
44838;SDS011;30576;42.098;24.876;2023-07-31T00:54:05;1.35;;;0.93;;
44838;SDS011;30576;42.098;24.876;2023-07-31T00:56:31;0.55;;;0.32;;
44838;SDS011;30576;42.098;24.876;2023-07-31T00:58:57;2.50;;;1.33;;
44838;SDS011;30576;42.098;24.876;2023-07-31T01:01:23;1.80;;;1.17;;
44838;SDS011;30576;42.098;24.876;2023-07-31T01:03:49;1.30;;;0.98;;
44838;SDS011;30576;42.098;24.876;2023-07-31T01:06:30;5.05;;;0.45;;
44838;SDS011;30576;42.098;24.876;2023-07-31T01:09:11;1.40;;;1.20;;
44838;SDS011;30576;42.098;24.876;2023-07-31T01:12:00;0.55;;;0.55;;
44838;SDS011;30576;42.098;24.876;2023-07-31T01:14:27;1.50;;;1.02;;
44838;SDS011;30576;42.098;24.876;2023-07-31T01:16:53;0.85;;;0.30;;
44838;SDS011;30576;42.098;24.876;2023-07-31T01:19:21;2.10;;;0.90;;
44838;SDS011;30576;42.098;24.876;2023-07-31T01:27:50;0.25;;;0.25;;
44838;SDS011;30576;42.098;24.876;2023-07-31T01:30:27;0.25;;;0.22;;
44838;SDS011;30576;42.098;24.876;2023-07-31T01:33:01;0.90;;;0.52;;
44838;SDS011;30576;42.098;24.876;2023-07-31T01:35:32;0.40;;;0.40;;
44838;SDS011;30576;42.098;24.876;2023-07-31T01:38:02;1.83;;;0.80;;
44838;SDS011;30576;42.098;24.876;2023-07-31T01:40:28;1.33;;;0.80;;
44838;SDS011;30576;42.098;24.876;2023-07-31T01:42:53;0.52;;;0.43;;
44838;SDS011;30576;42.098;24.876;2023-07-31T01:45:19;0.52;;;0.40;;
44838;SDS011;30576;42.098;24.876;2023-07-31T01:47:45;0.65;;;0.43;;
44838;SDS011;30576;42.098;24.876;2023-07-31T01:50:10;0.45;;;0.45;;
44838;SDS011;30576;42.098;24.876;2023-07-31T01:52:36;0.70;;;0.40;;
44838;SDS011;30576;42.098;24.876;2023-07-31T01:55:01;0.93;;;0.32;;
44838;SDS011;30576;42.098;24.876;2023-07-31T01:57:28;0.38;;;0.38;;
44838;SDS011;30576;42.098;24.876;2023-07-31T01:59:54;1.65;;;0.85;;
44838;SDS011;30576;42.098;24.876;2023-07-31T02:02:19;0.52;;;0.47;;
44838;SDS011;30576;42.098;24.876;2023-07-31T02:04:45;0.98;;;0.47;;
44838;SDS011;30576;42.098;24.876;2023-07-31T02:07:11;1.13;;;0.63;;
44838;SDS011;30576;42.098;24.876;2023-07-31T02:09:37;0.75;;;0.50;;
44838;SDS011;30576;42.098;24.876;2023-07-31T02:12:02;1.10;;;0.82;;
44838;SDS011;30576;42.098;24.876;2023-07-31T02:14:28;1.70;;;0.60;;
44838;SDS011;30576;42.098;24.876;2023-07-31T02:16:53;1.58;;;1.10;;
44838;SDS011;30576;42.098;24.876;2023-07-31T02:19:19;0.88;;;0.68;;
44838;SDS011;30576;42.098;24.876;2023-07-31T02:21:44;0.95;;;0.88;;
44838;SDS011;30576;42.098;24.876;2023-07-31T02:24:10;0.52;;;0.52;;
44838;SDS011;30576;42.098;24.876;2023-07-31T02:26:35;2.80;;;1.38;;
44838;SDS011;30576;42.098;24.876;2023-07-31T02:29:01;0.85;;;0.68;;
44838;SDS011;30576;42.098;24.876;2023-07-31T02:31:26;1.52;;;0.90;;
44838;SDS011;30576;42.098;24.876;2023-07-31T02:33:52;0.93;;;0.55;;
44838;SDS011;30576;42.098;24.876;2023-07-31T02:36:17;1.40;;;0.70;;
44838;SDS011;30576;42.098;24.876;2023-07-31T02:38:42;1.17;;;0.65;;
44838;SDS011;30576;42.098;24.876;2023-07-31T02:41:08;1.73;;;1.23;;
44838;SDS011;30576;42.098;24.876;2023-07-31T02:43:33;0.93;;;0.50;;
44838;SDS011;30576;42.098;24.876;2023-07-31T02:45:59;1.63;;;0.82;;
44838;SDS011;30576;42.098;24.876;2023-07-31T02:48:25;1.67;;;1.33;;
44838;SDS011;30576;42.098;24.876;2023-07-31T02:50:50;0.63;;;0.55;;
44838;SDS011;30576;42.098;24.876;2023-07-31T02:53:16;1.30;;;0.98;;
44838;SDS011;30576;42.098;24.876;2023-07-31T02:55:41;0.32;;;0.20;;
44838;SDS011;30576;42.098;24.876;2023-07-31T02:58:06;1.27;;;0.98;;
44838;SDS011;30576;42.098;24.876;2023-07-31T03:00:32;1.40;;;1.05;;
44838;SDS011;30576;42.098;24.876;2023-07-31T03:02:57;1.38;;;0.80;;
44838;SDS011;30576;42.098;24.876;2023-07-31T03:05:23;2.88;;;1.70;;
44838;SDS011;30576;42.098;24.876;2023-07-31T03:07:48;1.05;;;0.75;;
44838;SDS011;30576;42.098;24.876;2023-07-31T03:10:15;0.40;;;0.30;;
44838;SDS011;30576;42.098;24.876;2023-07-31T03:12:41;2.08;;;1.45;;
44838;SDS011;30576;42.098;24.876;2023-07-31T03:15:07;1.10;;;0.52;;
44838;SDS011;30576;42.098;24.876;2023-07-31T03:17:33;0.95;;;0.73;;
44838;SDS011;30576;42.098;24.876;2023-07-31T03:19:58;0.93;;;0.60;;
44838;SDS011;30576;42.098;24.876;2023-07-31T03:22:25;3.78;;;1.60;;
44838;SDS011;30576;42.098;24.876;2023-07-31T03:24:50;0.68;;;0.45;;
44838;SDS011;30576;42.098;24.876;2023-07-31T03:27:16;0.80;;;0.63;;
44838;SDS011;30576;42.098;24.876;2023-07-31T03:29:41;1.05;;;0.85;;
44838;SDS011;30576;42.098;24.876;2023-07-31T03:32:06;4.40;;;1.23;;
44838;SDS011;30576;42.098;24.876;2023-07-31T03:34:32;0.50;;;0.50;;
44838;SDS011;30576;42.098;24.876;2023-07-31T03:36:58;5.28;;;1.52;;
44838;SDS011;30576;42.098;24.876;2023-07-31T03:39:24;0.98;;;0.50;;
44838;SDS011;30576;42.098;24.876;2023-07-31T03:41:49;0.60;;;0.60;;
44838;SDS011;30576;42.098;24.876;2023-07-31T03:44:14;0.30;;;0.30;;
44838;SDS011;30576;42.098;24.876;2023-07-31T03:46:40;13.05;;;2.17;;
44838;SDS011;30576;42.098;24.876;2023-07-31T03:49:05;1.73;;;1.00;;
44838;SDS011;30576;42.098;24.876;2023-07-31T03:51:31;0.73;;;0.73;;
44838;SDS011;30576;42.098;24.876;2023-07-31T03:53:56;1.33;;;1.13;;
44838;SDS011;30576;42.098;24.876;2023-07-31T03:56:22;1.20;;;0.75;;
44838;SDS011;30576;42.098;24.876;2023-07-31T03:58:47;1.20;;;0.57;;
44838;SDS011;30576;42.098;24.876;2023-07-31T04:01:13;3.00;;;1.65;;
44838;SDS011;30576;42.098;24.876;2023-07-31T04:03:38;1.77;;;1.25;;
44838;SDS011;30576;42.098;24.876;2023-07-31T04:06:04;12.45;;;3.15;;
44838;SDS011;30576;42.098;24.876;2023-07-31T04:08:29;2.53;;;1.35;;
44838;SDS011;30576;42.098;24.876;2023-07-31T04:10:55;2.13;;;1.75;;
44838;SDS011;30576;42.098;24.876;2023-07-31T04:13:21;2.42;;;1.80;;
44838;SDS011;30576;42.098;24.876;2023-07-31T04:15:48;3.00;;;2.00;;
44838;SDS011;30576;42.098;24.876;2023-07-31T04:18:15;1.52;;;1.25;;
44838;SDS011;30576;42.098;24.876;2023-07-31T04:20:40;7.78;;;2.88;;
44838;SDS011;30576;42.098;24.876;2023-07-31T04:23:06;2.55;;;1.45;;
44838;SDS011;30576;42.098;24.876;2023-07-31T04:25:31;2.20;;;1.63;;
44838;SDS011;30576;42.098;24.876;2023-07-31T04:27:57;2.60;;;1.30;;
44838;SDS011;30576;42.098;24.876;2023-07-31T04:30:22;2.33;;;1.50;;
44838;SDS011;30576;42.098;24.876;2023-07-31T04:32:49;3.22;;;1.25;;
44838;SDS011;30576;42.098;24.876;2023-07-31T04:35:14;2.25;;;1.67;;
44838;SDS011;30576;42.098;24.876;2023-07-31T04:37:40;1.67;;;1.02;;
44838;SDS011;30576;42.098;24.876;2023-07-31T04:40:06;5.95;;;1.50;;
44838;SDS011;30576;42.098;24.876;2023-07-31T04:42:33;1.77;;;1.48;;
44838;SDS011;30576;42.098;24.876;2023-07-31T04:44:59;2.70;;;2.30;;
44838;SDS011;30576;42.098;24.876;2023-07-31T04:47:25;2.00;;;1.38;;
44838;SDS011;30576;42.098;24.876;2023-07-31T04:49:50;2.63;;;1.10;;
44838;SDS011;30576;42.098;24.876;2023-07-31T04:52:15;1.77;;;0.95;;
44838;SDS011;30576;42.098;24.876;2023-07-31T04:54:41;2.83;;;1.38;;
44838;SDS011;30576;42.098;24.876;2023-07-31T04:57:07;2.55;;;1.80;;
44838;SDS011;30576;42.098;24.876;2023-07-31T04:59:33;2.85;;;1.95;;
44838;SDS011;30576;42.098;24.876;2023-07-31T05:01:58;9.50;;;1.45;;
44838;SDS011;30576;42.098;24.876;2023-07-31T05:04:24;1.48;;;1.20;;
44838;SDS011;30576;42.098;24.876;2023-07-31T05:06:49;2.38;;;1.67;;
44838;SDS011;30576;42.098;24.876;2023-07-31T05:09:15;1.90;;;1.67;;
44838;SDS011;30576;42.098;24.876;2023-07-31T05:11:42;5.85;;;1.67;;
44838;SDS011;30576;42.098;24.876;2023-07-31T05:14:08;2.85;;;1.35;;
44838;SDS011;30576;42.098;24.876;2023-07-31T05:16:34;2.55;;;1.65;;
44838;SDS011;30576;42.098;24.876;2023-07-31T05:18:59;3.72;;;1.58;;
44838;SDS011;30576;42.098;24.876;2023-07-31T05:21:25;2.15;;;1.13;;
44838;SDS011;30576;42.098;24.876;2023-07-31T05:23:50;7.75;;;1.60;;
44838;SDS011;30576;42.098;24.876;2023-07-31T05:26:16;2.47;;;1.58;;
44838;SDS011;30576;42.098;24.876;2023-07-31T05:28:41;3.22;;;1.70;;
44838;SDS011;30576;42.098;24.876;2023-07-31T05:31:06;2.78;;;1.73;;
44838;SDS011;30576;42.098;24.876;2023-07-31T05:33:32;2.13;;;1.90;;
44838;SDS011;30576;42.098;24.876;2023-07-31T05:35:58;6.90;;;2.15;;
44838;SDS011;30576;42.098;24.876;2023-07-31T05:38:23;2.17;;;1.30;;
44838;SDS011;30576;42.098;24.876;2023-07-31T05:40:49;2.28;;;1.25;;
44838;SDS011;30576;42.098;24.876;2023-07-31T05:43:14;2.92;;;1.27;;
44838;SDS011;30576;42.098;24.876;2023-07-31T05:45:40;3.22;;;2.17;;
44838;SDS011;30576;42.098;24.876;2023-07-31T05:48:06;2.47;;;1.20;;
44838;SDS011;30576;42.098;24.876;2023-07-31T05:50:32;5.00;;;2.03;;
44838;SDS011;30576;42.098;24.876;2023-07-31T05:52:57;2.78;;;1.65;;
44838;SDS011;30576;42.098;24.876;2023-07-31T05:55:23;2.28;;;1.58;;
44838;SDS011;30576;42.098;24.876;2023-07-31T05:57:53;3.65;;;1.67;;
44838;SDS011;30576;42.098;24.876;2023-07-31T06:00:19;1.02;;;0.88;;
44838;SDS011;30576;42.098;24.876;2023-07-31T06:02:46;4.32;;;1.88;;
44838;SDS011;30576;42.098;24.876;2023-07-31T06:05:12;4.00;;;2.17;;
44838;SDS011;30576;42.098;24.876;2023-07-31T06:07:38;1.73;;;1.40;;
44838;SDS011;30576;42.098;24.876;2023-07-31T06:10:03;6.72;;;2.67;;
44838;SDS011;30576;42.098;24.876;2023-07-31T06:12:33;6.72;;;3.90;;
44838;SDS011;30576;42.098;24.876;2023-07-31T06:15:00;4.85;;;2.75;;
44838;SDS011;30576;42.098;24.876;2023-07-31T06:17:25;5.05;;;2.40;;
44838;SDS011;30576;42.098;24.876;2023-07-31T06:19:51;3.08;;;1.77;;
44838;SDS011;30576;42.098;24.876;2023-07-31T06:22:16;3.22;;;2.25;;
44838;SDS011;30576;42.098;24.876;2023-07-31T06:24:42;2.53;;;1.40;;
44838;SDS011;30576;42.098;24.876;2023-07-31T06:27:08;4.20;;;2.10;;
44838;SDS011;30576;42.098;24.876;2023-07-31T06:29:33;3.00;;;1.60;;
44838;SDS011;30576;42.098;24.876;2023-07-31T06:32:00;1.92;;;1.48;;
44838;SDS011;30576;42.098;24.876;2023-07-31T06:34:25;5.00;;;2.67;;
44838;SDS011;30576;42.098;24.876;2023-07-31T06:36:50;2.83;;;2.20;;
44838;SDS011;30576;42.098;24.876;2023-07-31T06:39:16;4.57;;;2.50;;
44838;SDS011;30576;42.098;24.876;2023-07-31T06:41:42;3.78;;;2.22;;
44838;SDS011;30576;42.098;24.876;2023-07-31T06:44:08;4.03;;;2.47;;
44838;SDS011;30576;42.098;24.876;2023-07-31T06:46:33;4.50;;;2.40;;
44838;SDS011;30576;42.098;24.876;2023-07-31T06:48:59;2.95;;;2.20;;
44838;SDS011;30576;42.098;24.876;2023-07-31T06:51:24;2.20;;;1.40;;
44838;SDS011;30576;42.098;24.876;2023-07-31T06:53:50;4.38;;;2.88;;
44838;SDS011;30576;42.098;24.876;2023-07-31T06:56:15;6.43;;;3.53;;
44838;SDS011;30576;42.098;24.876;2023-07-31T06:58:41;3.97;;;2.72;;
44838;SDS011;30576;42.098;24.876;2023-07-31T07:01:06;3.83;;;2.53;;
44838;SDS011;30576;42.098;24.876;2023-07-31T07:03:32;2.92;;;2.08;;
44838;SDS011;30576;42.098;24.876;2023-07-31T07:05:57;4.05;;;2.97;;
44838;SDS011;30576;42.098;24.876;2023-07-31T07:08:23;3.08;;;2.13;;
44838;SDS011;30576;42.098;24.876;2023-07-31T07:10:49;2.40;;;1.42;;
44838;SDS011;30576;42.098;24.876;2023-07-31T07:13:14;3.70;;;2.85;;
44838;SDS011;30576;42.098;24.876;2023-07-31T07:15:40;3.58;;;1.80;;
44838;SDS011;30576;42.098;24.876;2023-07-31T07:18:05;3.30;;;1.88;;
44838;SDS011;30576;42.098;24.876;2023-07-31T07:20:31;3.53;;;2.65;;
44838;SDS011;30576;42.098;24.876;2023-07-31T07:22:57;4.55;;;2.95;;
44838;SDS011;30576;42.098;24.876;2023-07-31T07:25:22;2.58;;;1.80;;
44838;SDS011;30576;42.098;24.876;2023-07-31T07:27:47;3.22;;;2.15;;
44838;SDS011;30576;42.098;24.876;2023-07-31T07:30:13;4.65;;;2.65;;
44838;SDS011;30576;42.098;24.876;2023-07-31T07:32:39;3.60;;;2.08;;
44838;SDS011;30576;42.098;24.876;2023-07-31T07:35:05;4.20;;;2.95;;
44838;SDS011;30576;42.098;24.876;2023-07-31T07:37:31;2.42;;;1.95;;
44838;SDS011;30576;42.098;24.876;2023-07-31T07:39:56;4.15;;;2.70;;
44838;SDS011;30576;42.098;24.876;2023-07-31T07:42:22;3.08;;;1.95;;
44838;SDS011;30576;42.098;24.876;2023-07-31T07:44:48;2.95;;;1.98;;
44838;SDS011;30576;42.098;24.876;2023-07-31T07:47:13;6.60;;;4.07;;
44838;SDS011;30576;42.098;24.876;2023-07-31T07:49:39;6.03;;;3.50;;
44838;SDS011;30576;42.098;24.876;2023-07-31T07:52:04;4.57;;;2.53;;
44838;SDS011;30576;42.098;24.876;2023-07-31T07:54:30;6.30;;;3.80;;
44838;SDS011;30576;42.098;24.876;2023-07-31T07:56:56;3.63;;;2.60;;
44838;SDS011;30576;42.098;24.876;2023-07-31T07:59:21;6.45;;;3.55;;
44838;SDS011;30576;42.098;24.876;2023-07-31T08:01:46;3.67;;;2.75;;
44838;SDS011;30576;42.098;24.876;2023-07-31T08:04:12;7.18;;;3.25;;
44838;SDS011;30576;42.098;24.876;2023-07-31T08:06:38;6.80;;;4.32;;
44838;SDS011;30576;42.098;24.876;2023-07-31T08:09:03;5.60;;;2.85;;
44838;SDS011;30576;42.098;24.876;2023-07-31T08:11:31;3.63;;;3.05;;
44838;SDS011;30576;42.098;24.876;2023-07-31T08:13:57;6.35;;;3.63;;
44838;SDS011;30576;42.098;24.876;2023-07-31T08:16:23;6.18;;;3.42;;
44838;SDS011;30576;42.098;24.876;2023-07-31T08:18:48;4.55;;;2.88;;
44838;SDS011;30576;42.098;24.876;2023-07-31T08:21:14;7.15;;;3.70;;
44838;SDS011;30576;42.098;24.876;2023-07-31T08:23:40;4.97;;;4.10;;
44838;SDS011;30576;42.098;24.876;2023-07-31T08:26:05;11.18;;;3.35;;
44838;SDS011;30576;42.098;24.876;2023-07-31T08:28:31;5.57;;;2.55;;
44838;SDS011;30576;42.098;24.876;2023-07-31T08:30:56;3.40;;;2.58;;
44838;SDS011;30576;42.098;24.876;2023-07-31T08:33:22;4.95;;;2.67;;
44838;SDS011;30576;42.098;24.876;2023-07-31T08:35:47;5.30;;;3.13;;
44838;SDS011;30576;42.098;24.876;2023-07-31T08:38:13;4.28;;;3.10;;
44838;SDS011;30576;42.098;24.876;2023-07-31T08:40:39;8.55;;;2.83;;
44838;SDS011;30576;42.098;24.876;2023-07-31T08:43:04;4.00;;;3.20;;
44838;SDS011;30576;42.098;24.876;2023-07-31T08:45:30;7.97;;;3.53;;
44838;SDS011;30576;42.098;24.876;2023-07-31T08:47:57;3.58;;;2.70;;
44838;SDS011;30576;42.098;24.876;2023-07-31T08:50:24;5.90;;;3.13;;
44838;SDS011;30576;42.098;24.876;2023-07-31T08:52:50;8.05;;;2.65;;
44838;SDS011;30576;42.098;24.876;2023-07-31T08:55:16;6.25;;;4.45;;
44838;SDS011;30576;42.098;24.876;2023-07-31T08:57:43;5.63;;;3.67;;
44838;SDS011;30576;42.098;24.876;2023-07-31T09:00:09;6.50;;;4.20;;
44838;SDS011;30576;42.098;24.876;2023-07-31T09:05:10;8.10;;;3.53;;
44838;SDS011;30576;42.098;24.876;2023-07-31T09:07:36;6.18;;;3.80;;
44838;SDS011;30576;42.098;24.876;2023-07-31T09:10:03;3.55;;;2.35;;
44838;SDS011;30576;42.098;24.876;2023-07-31T09:12:29;3.40;;;2.10;;
44838;SDS011;30576;42.098;24.876;2023-07-31T09:14:56;7.68;;;3.45;;
44838;SDS011;30576;42.098;24.876;2023-07-31T09:17:29;5.35;;;2.95;;
44838;SDS011;30576;42.098;24.876;2023-07-31T09:20:20;7.88;;;3.20;;
44838;SDS011;30576;42.098;24.876;2023-07-31T09:22:46;4.68;;;2.88;;
44838;SDS011;30576;42.098;24.876;2023-07-31T09:25:14;3.38;;;2.35;;
44838;SDS011;30576;42.098;24.876;2023-07-31T09:27:59;4.57;;;2.30;;
44838;SDS011;30576;42.098;24.876;2023-07-31T09:30:28;4.50;;;2.70;;
44838;SDS011;30576;42.098;24.876;2023-07-31T09:33:14;3.30;;;2.67;;
44838;SDS011;30576;42.098;24.876;2023-07-31T09:35:39;6.07;;;2.90;;
44838;SDS011;30576;42.098;24.876;2023-07-31T09:38:12;5.53;;;2.53;;
44838;SDS011;30576;42.098;24.876;2023-07-31T09:40:40;4.00;;;2.70;;
44838;SDS011;30576;42.098;24.876;2023-07-31T09:43:08;5.20;;;2.85;;
44838;SDS011;30576;42.098;24.876;2023-07-31T09:45:36;6.55;;;3.63;;
44838;SDS011;30576;42.098;24.876;2023-07-31T09:48:03;5.18;;;3.03;;
44838;SDS011;30576;42.098;24.876;2023-07-31T09:50:29;9.32;;;3.40;;
44838;SDS011;30576;42.098;24.876;2023-07-31T09:52:55;8.30;;;3.88;;
44838;SDS011;30576;42.098;24.876;2023-07-31T09:55:20;4.95;;;3.38;;
44838;SDS011;30576;42.098;24.876;2023-07-31T09:57:49;3.42;;;2.30;;
44838;SDS011;30576;42.098;24.876;2023-07-31T10:00:15;3.08;;;1.90;;
44838;SDS011;30576;42.098;24.876;2023-07-31T10:02:44;3.67;;;2.15;;
44838;SDS011;30576;42.098;24.876;2023-07-31T10:05:12;3.90;;;1.98;;
44838;SDS011;30576;42.098;24.876;2023-07-31T10:07:41;2.90;;;2.10;;
44838;SDS011;30576;42.098;24.876;2023-07-31T10:10:08;6.10;;;3.13;;
44838;SDS011;30576;42.098;24.876;2023-07-31T10:12:34;6.55;;;3.17;;
44838;SDS011;30576;42.098;24.876;2023-07-31T10:15:01;6.57;;;3.72;;
44838;SDS011;30576;42.098;24.876;2023-07-31T10:17:27;4.03;;;2.75;;
44838;SDS011;30576;42.098;24.876;2023-07-31T10:20:00;4.10;;;2.45;;
44838;SDS011;30576;42.098;24.876;2023-07-31T10:22:30;2.85;;;2.05;;
44838;SDS011;30576;42.098;24.876;2023-07-31T10:24:57;5.90;;;3.85;;
44838;SDS011;30576;42.098;24.876;2023-07-31T10:27:24;4.45;;;3.08;;
44838;SDS011;30576;42.098;24.876;2023-07-31T10:29:50;4.43;;;2.72;;
44838;SDS011;30576;42.098;24.876;2023-07-31T10:32:18;4.43;;;2.90;;
44838;SDS011;30576;42.098;24.876;2023-07-31T10:34:44;5.07;;;2.58;;
44838;SDS011;30576;42.098;24.876;2023-07-31T10:42:34;3.45;;;2.95;;
44838;SDS011;30576;42.098;24.876;2023-07-31T10:45:02;2.20;;;1.75;;
44838;SDS011;30576;42.098;24.876;2023-07-31T10:47:29;3.72;;;2.33;;
44838;SDS011;30576;42.098;24.876;2023-07-31T10:50:11;8.43;;;4.35;;
44838;SDS011;30576;42.098;24.876;2023-07-31T10:52:56;6.55;;;3.17;;
44838;SDS011;30576;42.098;24.876;2023-07-31T10:55:41;3.58;;;2.38;;
44838;SDS011;30576;42.098;24.876;2023-07-31T10:58:11;4.60;;;2.47;;
44838;SDS011;30576;42.098;24.876;2023-07-31T11:00:38;5.95;;;2.85;;
44838;SDS011;30576;42.098;24.876;2023-07-31T11:03:06;7.07;;;3.38;;
44838;SDS011;30576;42.098;24.876;2023-07-31T11:05:43;5.93;;;3.17;;
44838;SDS011;30576;42.098;24.876;2023-07-31T11:08:17;6.57;;;2.63;;
44838;SDS011;30576;42.098;24.876;2023-07-31T11:10:45;2.72;;;2.25;;
44838;SDS011;30576;42.098;24.876;2023-07-31T11:13:11;6.10;;;2.85;;
44838;SDS011;30576;42.098;24.876;2023-07-31T11:15:37;4.93;;;3.08;;
44838;SDS011;30576;42.098;24.876;2023-07-31T11:18:03;5.30;;;3.05;;
44838;SDS011;30576;42.098;24.876;2023-07-31T11:20:30;4.50;;;2.90;;
44838;SDS011;30576;42.098;24.876;2023-07-31T11:23:06;3.83;;;2.08;;
44838;SDS011;30576;42.098;24.876;2023-07-31T11:25:33;3.95;;;2.75;;
44838;SDS011;30576;42.098;24.876;2023-07-31T11:28:05;4.13;;;2.70;;
44838;SDS011;30576;42.098;24.876;2023-07-31T11:30:32;4.97;;;2.55;;
44838;SDS011;30576;42.098;24.876;2023-07-31T11:32:59;5.88;;;2.92;;
44838;SDS011;30576;42.098;24.876;2023-07-31T11:35:26;3.40;;;2.97;;
44838;SDS011;30576;42.098;24.876;2023-07-31T11:37:52;14.40;;;3.78;;
44838;SDS011;30576;42.098;24.876;2023-07-31T11:40:17;4.20;;;2.63;;
44838;SDS011;30576;42.098;24.876;2023-07-31T11:42:43;2.55;;;1.90;;
44838;SDS011;30576;42.098;24.876;2023-07-31T11:45:10;4.43;;;1.98;;
44838;SDS011;30576;42.098;24.876;2023-07-31T11:47:36;2.60;;;1.60;;
44838;SDS011;30576;42.098;24.876;2023-07-31T11:50:03;6.93;;;3.70;;
44838;SDS011;30576;42.098;24.876;2023-07-31T11:52:32;3.40;;;1.98;;
44838;SDS011;30576;42.098;24.876;2023-07-31T11:55:03;3.20;;;2.63;;
44838;SDS011;30576;42.098;24.876;2023-07-31T11:57:29;3.10;;;2.05;;
44838;SDS011;30576;42.098;24.876;2023-07-31T11:59:55;3.50;;;2.20;;
44838;SDS011;30576;42.098;24.876;2023-07-31T12:02:22;4.65;;;2.42;;
44838;SDS011;30576;42.098;24.876;2023-07-31T12:04:48;4.45;;;2.83;;
44838;SDS011;30576;42.098;24.876;2023-07-31T12:07:14;1.83;;;1.50;;
44838;SDS011;30576;42.098;24.876;2023-07-31T12:09:50;3.00;;;2.20;;
44838;SDS011;30576;42.098;24.876;2023-07-31T12:12:22;2.38;;;1.42;;
44838;SDS011;30576;42.098;24.876;2023-07-31T12:14:49;1.80;;;1.15;;
44838;SDS011;30576;42.098;24.876;2023-07-31T12:17:16;8.35;;;1.45;;
44838;SDS011;30576;42.098;24.876;2023-07-31T12:19:44;2.00;;;1.20;;
44838;SDS011;30576;42.098;24.876;2023-07-31T12:22:13;2.00;;;1.30;;
44838;SDS011;30576;42.098;24.876;2023-07-31T12:24:40;3.70;;;1.33;;
44838;SDS011;30576;42.098;24.876;2023-07-31T12:27:10;1.60;;;1.30;;
44838;SDS011;30576;42.098;24.876;2023-07-31T12:29:41;3.28;;;1.83;;
44838;SDS011;30576;42.098;24.876;2023-07-31T12:32:24;2.47;;;1.67;;
44838;SDS011;30576;42.098;24.876;2023-07-31T12:34:50;2.13;;;1.23;;
44838;SDS011;30576;42.098;24.876;2023-07-31T12:37:16;2.05;;;1.80;;
44838;SDS011;30576;42.098;24.876;2023-07-31T12:39:42;3.10;;;2.38;;
44838;SDS011;30576;42.098;24.876;2023-07-31T12:42:08;3.40;;;1.73;;
44838;SDS011;30576;42.098;24.876;2023-07-31T12:44:33;2.65;;;1.77;;
44838;SDS011;30576;42.098;24.876;2023-07-31T12:46:59;2.40;;;1.48;;
44838;SDS011;30576;42.098;24.876;2023-07-31T12:49:24;2.40;;;1.60;;
44838;SDS011;30576;42.098;24.876;2023-07-31T12:51:50;3.00;;;1.80;;
44838;SDS011;30576;42.098;24.876;2023-07-31T12:54:15;2.78;;;2.33;;
44838;SDS011;30576;42.098;24.876;2023-07-31T12:56:41;3.00;;;1.88;;
44838;SDS011;30576;42.098;24.876;2023-07-31T12:59:06;2.38;;;1.15;;
44838;SDS011;30576;42.098;24.876;2023-07-31T13:01:32;1.90;;;1.73;;
44838;SDS011;30576;42.098;24.876;2023-07-31T13:03:57;2.80;;;1.85;;
44838;SDS011;30576;42.098;24.876;2023-07-31T13:06:24;2.28;;;1.73;;
44838;SDS011;30576;42.098;24.876;2023-07-31T13:08:51;7.45;;;2.45;;
44838;SDS011;30576;42.098;24.876;2023-07-31T13:11:16;2.58;;;1.50;;
44838;SDS011;30576;42.098;24.876;2023-07-31T13:13:42;2.28;;;2.00;;
44838;SDS011;30576;42.098;24.876;2023-07-31T13:16:07;4.00;;;2.58;;
44838;SDS011;30576;42.098;24.876;2023-07-31T13:18:33;2.70;;;1.88;;
44838;SDS011;30576;42.098;24.876;2023-07-31T13:20:58;2.78;;;1.85;;
44838;SDS011;30576;42.098;24.876;2023-07-31T13:23:24;3.03;;;1.85;;
44838;SDS011;30576;42.098;24.876;2023-07-31T13:25:49;3.05;;;2.50;;
44838;SDS011;30576;42.098;24.876;2023-07-31T13:28:15;3.13;;;2.20;;
44838;SDS011;30576;42.098;24.876;2023-07-31T13:30:40;1.92;;;1.50;;
44838;SDS011;30576;42.098;24.876;2023-07-31T13:33:06;3.08;;;1.55;;
44838;SDS011;30576;42.098;24.876;2023-07-31T13:35:31;3.00;;;1.42;;
44838;SDS011;30576;42.098;24.876;2023-07-31T13:37:57;2.95;;;2.00;;
44838;SDS011;30576;42.098;24.876;2023-07-31T13:40:22;1.83;;;1.35;;
44838;SDS011;30576;42.098;24.876;2023-07-31T13:42:48;3.83;;;2.28;;
44838;SDS011;30576;42.098;24.876;2023-07-31T13:45:14;3.15;;;2.00;;
44838;SDS011;30576;42.098;24.876;2023-07-31T13:47:39;3.13;;;2.08;;
44838;SDS011;30576;42.098;24.876;2023-07-31T13:50:05;3.10;;;2.05;;
44838;SDS011;30576;42.098;24.876;2023-07-31T13:52:31;4.30;;;2.50;;
44838;SDS011;30576;42.098;24.876;2023-07-31T13:54:56;2.53;;;1.75;;
44838;SDS011;30576;42.098;24.876;2023-07-31T13:57:22;2.90;;;1.83;;
44838;SDS011;30576;42.098;24.876;2023-07-31T13:59:48;2.15;;;1.70;;
44838;SDS011;30576;42.098;24.876;2023-07-31T14:02:14;2.55;;;1.45;;
44838;SDS011;30576;42.098;24.876;2023-07-31T14:04:40;3.58;;;2.20;;
44838;SDS011;30576;42.098;24.876;2023-07-31T14:07:05;3.85;;;2.17;;
44838;SDS011;30576;42.098;24.876;2023-07-31T14:09:31;3.63;;;2.55;;
44838;SDS011;30576;42.098;24.876;2023-07-31T14:11:57;3.08;;;1.75;;
44838;SDS011;30576;42.098;24.876;2023-07-31T14:14:22;2.25;;;1.58;;
44838;SDS011;30576;42.098;24.876;2023-07-31T14:16:48;4.00;;;2.50;;
44838;SDS011;30576;42.098;24.876;2023-07-31T14:19:13;6.13;;;2.22;;
44838;SDS011;30576;42.098;24.876;2023-07-31T14:21:39;4.90;;;2.45;;
44838;SDS011;30576;42.098;24.876;2023-07-31T14:24:04;2.72;;;1.95;;
44838;SDS011;30576;42.098;24.876;2023-07-31T14:26:30;6.22;;;2.45;;
44838;SDS011;30576;42.098;24.876;2023-07-31T14:28:55;2.90;;;1.73;;
44838;SDS011;30576;42.098;24.876;2023-07-31T14:31:21;2.90;;;1.98;;
44838;SDS011;30576;42.098;24.876;2023-07-31T14:33:46;4.28;;;2.30;;
44838;SDS011;30576;42.098;24.876;2023-07-31T14:36:13;3.72;;;2.22;;
44838;SDS011;30576;42.098;24.876;2023-07-31T14:38:38;3.00;;;1.63;;
44838;SDS011;30576;42.098;24.876;2023-07-31T14:41:04;4.63;;;2.22;;
44838;SDS011;30576;42.098;24.876;2023-07-31T14:43:29;2.17;;;1.25;;